createdAt,value
2019-05-18T00:00:28.875Z,17.70
2019-05-18T00:02:58.298Z,17.70
2019-05-18T00:05:27.685Z,17.70
2019-05-18T00:07:57.040Z,17.70
2019-05-18T00:10:26.474Z,17.60
2019-05-18T00:12:55.824Z,17.60
2019-05-18T00:15:25.275Z,17.70
2019-05-18T00:17:54.680Z,17.60
2019-05-18T00:20:24.046Z,17.60
2019-05-18T00:22:53.431Z,17.50
2019-05-18T00:25:22.942Z,17.50
2019-05-18T00:27:52.532Z,17.40
2019-05-18T00:30:22.067Z,17.40
2019-05-18T00:32:51.557Z,17.30
2019-05-18T00:35:21.026Z,17.30
2019-05-18T00:37:50.507Z,17.20
2019-05-18T00:40:20.120Z,17.10
2019-05-18T00:42:49.691Z,17.10
2019-05-18T00:45:19.248Z,17.10
2019-05-18T00:47:48.729Z,17.10
2019-05-18T00:50:18.355Z,17.00
2019-05-18T00:52:47.833Z,17.00
2019-05-18T00:55:17.377Z,16.90
2019-05-18T00:57:46.877Z,16.80
2019-05-18T01:00:16.811Z,16.80
2019-05-18T01:02:46.301Z,16.70
2019-05-18T01:05:15.916Z,16.60
2019-05-18T01:07:45.419Z,16.60
2019-05-18T01:10:15.055Z,16.50
2019-05-18T01:12:44.560Z,16.40
2019-05-18T01:15:14.641Z,16.40
2019-05-18T01:17:56.373Z,16.30
2019-05-18T01:20:15.799Z,16.30
2019-05-18T01:22:45.271Z,16.30
2019-05-18T01:25:15.636Z,16.20
2019-05-18T01:27:45.115Z,16.20
2019-05-18T01:30:17.072Z,16.20
2019-05-18T01:32:46.603Z,16.10
2019-05-18T01:35:16.387Z,16.10
2019-05-18T01:37:45.891Z,16.10
2019-05-18T01:40:15.708Z,16.00
2019-05-18T01:42:45.261Z,16.00
2019-05-18T01:45:17.282Z,16.00
2019-05-18T01:47:46.212Z,16.00
2019-05-18T01:50:16.840Z,15.90
2019-05-18T01:52:46.328Z,15.90
2019-05-18T01:55:15.942Z,15.80
2019-05-18T01:57:45.470Z,15.80
2019-05-18T02:00:15.387Z,15.80
2019-05-18T02:02:44.889Z,15.80
2019-05-18T02:05:14.503Z,15.80
2019-05-18T02:07:44.040Z,15.70
2019-05-18T02:10:13.895Z,15.60
2019-05-18T02:12:43.308Z,15.60
2019-05-18T02:15:13.000Z,15.60
2019-05-18T02:17:42.357Z,15.60
2019-05-18T02:20:12.304Z,15.50
2019-05-18T02:22:41.759Z,15.50
2019-05-18T02:25:11.560Z,15.50
2019-05-18T02:27:40.910Z,15.50
2019-05-18T02:30:11.145Z,15.50
2019-05-18T02:32:40.619Z,15.40
2019-05-18T02:35:10.132Z,15.40
2019-05-18T02:37:39.490Z,15.40
2019-05-18T02:40:09.265Z,15.40
2019-05-18T02:42:38.634Z,15.40
2019-05-18T02:45:08.888Z,15.40
2019-05-18T02:47:38.243Z,15.30
2019-05-18T02:50:08.950Z,15.30
2019-05-18T02:52:38.373Z,15.30
2019-05-18T02:55:08.054Z,15.20
2019-05-18T02:57:37.500Z,15.20
2019-05-18T03:00:11.032Z,15.20
2019-05-18T03:02:40.457Z,15.20
2019-05-18T03:05:10.395Z,15.20
2019-05-18T03:07:39.914Z,15.20
2019-05-18T03:10:09.480Z,15.10
2019-05-18T03:12:38.915Z,15.10
2019-05-18T03:15:08.486Z,15.10
2019-05-18T03:17:38.071Z,15.10
2019-05-18T03:20:09.546Z,15.10
2019-05-18T03:22:38.949Z,15.10
2019-05-18T03:25:08.566Z,15.10
2019-05-18T03:27:37.909Z,15.10
2019-05-18T03:30:08.009Z,15.20
2019-05-18T03:32:37.494Z,15.20
2019-05-18T03:35:07.192Z,15.20
2019-05-18T03:37:36.563Z,15.20
2019-05-18T03:40:06.984Z,15.20
2019-05-18T03:42:36.431Z,15.30
2019-05-18T03:45:06.416Z,15.30
2019-05-18T03:47:35.932Z,15.40
2019-05-18T03:50:09.366Z,15.30
2019-05-18T03:52:38.795Z,15.40
2019-05-18T03:55:08.299Z,15.40
2019-05-18T03:57:37.692Z,15.40
2019-05-18T04:00:11.390Z,15.50
2019-05-18T04:02:40.900Z,15.50
2019-05-18T04:05:10.585Z,15.60
2019-05-18T04:07:39.950Z,15.60
2019-05-18T04:10:10.329Z,15.70
2019-05-18T04:12:40.717Z,15.80
2019-05-18T04:15:10.688Z,15.80
2019-05-18T04:17:40.027Z,15.80
2019-05-18T04:20:09.700Z,15.80
2019-05-18T04:22:39.063Z,15.90
2019-05-18T04:25:08.600Z,15.90
2019-05-18T04:27:37.994Z,15.90
2019-05-18T04:30:08.774Z,16.00
2019-05-18T04:32:38.124Z,16.00
2019-05-18T04:35:08.511Z,16.00
2019-05-18T04:37:37.872Z,16.10
2019-05-18T04:40:08.243Z,16.10
2019-05-18T04:42:37.654Z,16.10
2019-05-18T04:45:07.763Z,16.10
2019-05-18T04:47:37.182Z,16.10
2019-05-18T04:50:09.475Z,16.10
2019-05-18T04:52:38.962Z,16.20
2019-05-18T04:55:08.388Z,16.20
2019-05-18T04:57:37.831Z,16.20
2019-05-18T05:00:08.024Z,16.20
2019-05-18T05:02:37.466Z,16.20
2019-05-18T05:05:07.126Z,16.30
2019-05-18T05:07:36.575Z,16.20
2019-05-18T05:10:07.167Z,16.30
2019-05-18T05:12:37.568Z,16.20
2019-05-18T05:15:07.440Z,16.30
2019-05-18T05:17:36.872Z,16.20
2019-05-18T05:20:19.336Z,16.20
2019-05-18T05:22:40.885Z,16.20
2019-05-18T05:25:10.387Z,16.30
2019-05-18T05:27:39.765Z,16.30
2019-05-18T05:30:10.712Z,16.30
2019-05-18T05:32:40.144Z,16.30
2019-05-18T05:35:10.138Z,16.30
2019-05-18T05:37:39.563Z,16.30
2019-05-18T05:40:09.490Z,16.30
2019-05-18T05:42:38.934Z,16.20
2019-05-18T05:45:08.692Z,16.20
2019-05-18T05:47:38.042Z,16.20
2019-05-18T05:50:08.536Z,16.20
2019-05-18T05:52:38.002Z,16.20
2019-05-18T05:55:08.260Z,16.20
2019-05-18T05:57:37.703Z,16.20
2019-05-18T06:00:07.914Z,16.10
2019-05-18T06:02:38.429Z,16.10
2019-05-18T06:05:08.393Z,16.10
2019-05-18T06:07:37.908Z,16.10
2019-05-18T06:10:07.733Z,16.10
2019-05-18T06:12:37.203Z,16.10
2019-05-18T06:15:08.803Z,16.20
2019-05-18T06:17:39.320Z,16.20
2019-05-18T06:20:09.364Z,16.20
2019-05-18T06:22:39.948Z,16.20
2019-05-18T06:25:09.376Z,16.30
2019-05-18T06:27:38.934Z,16.40
2019-05-18T06:30:09.154Z,16.40
2019-05-18T06:32:38.738Z,16.40
2019-05-18T06:35:08.220Z,16.50
2019-05-18T06:37:37.677Z,16.50
2019-05-18T06:40:07.723Z,16.60
2019-05-18T06:42:37.160Z,16.60
2019-05-18T06:45:07.368Z,16.60
2019-05-18T06:47:36.923Z,16.60
2019-05-18T06:50:11.345Z,16.60
2019-05-18T06:52:39.320Z,16.60
2019-05-18T06:55:08.968Z,16.60
2019-05-18T06:57:38.754Z,16.70
2019-05-18T07:00:11.260Z,16.70
2019-05-18T07:02:40.744Z,16.70
2019-05-18T07:05:10.248Z,16.70
2019-05-18T07:07:39.609Z,16.70
2019-05-18T07:10:10.702Z,16.70
2019-05-18T07:12:40.146Z,16.70
2019-05-18T07:15:09.829Z,16.80
2019-05-18T07:17:40.986Z,16.80
2019-05-18T07:20:11.271Z,16.80
2019-05-18T07:22:41.532Z,16.80
2019-05-18T07:25:17.420Z,16.90
2019-05-18T07:27:47.171Z,17.00
2019-05-18T07:30:19.271Z,17.00
2019-05-18T07:33:02.917Z,17.00
2019-05-18T07:35:53.105Z,17.10
2019-05-18T07:39:24.614Z,17.20
2019-05-18T07:47:31.948Z,17.30
2019-05-18T07:50:09.681Z,17.40
2019-05-18T07:52:45.085Z,17.50
2019-05-18T07:55:14.771Z,17.60
2019-05-18T07:58:03.410Z,17.70
2019-05-18T08:00:57.909Z,17.70
2019-05-18T08:09:57.972Z,17.90
2019-05-18T08:12:57.891Z,18.00
2019-05-18T08:15:49.648Z,18.10
2019-05-18T08:18:23.208Z,18.20
2019-05-18T08:21:05.116Z,18.40
2019-05-18T08:24:20.988Z,18.50
2019-05-18T08:32:18.868Z,19.00
2019-05-18T08:34:59.142Z,19.30
2019-05-18T08:37:28.645Z,19.60
2019-05-18T08:40:19.705Z,19.80
2019-05-18T08:42:50.916Z,20.00
2019-05-18T08:45:23.465Z,20.20
2019-05-18T08:47:53.028Z,20.40
2019-05-18T08:50:24.756Z,20.60
2019-05-18T08:53:00.975Z,20.80
2019-05-18T08:55:33.958Z,21.00
2019-05-18T08:58:05.421Z,21.30
2019-05-18T09:00:40.896Z,21.30
2019-05-18T09:03:28.965Z,21.50
2019-05-18T09:06:04.028Z,21.90
2019-05-18T09:08:35.154Z,21.90
2019-05-18T09:11:13.674Z,22.00
2019-05-18T09:13:46.818Z,21.90
2019-05-18T09:16:17.794Z,21.90
2019-05-18T09:22:05.521Z,21.90
2019-05-18T09:24:36.006Z,21.90
2019-05-18T09:27:10.713Z,21.90
2019-05-18T09:29:42.736Z,22.00
2019-05-18T09:32:25.432Z,22.10
2019-05-18T09:35:04.662Z,22.00
2019-05-18T09:37:47.998Z,21.90
2019-05-18T09:40:18.363Z,21.80
2019-05-18T09:42:47.984Z,21.60
2019-05-18T09:45:21.127Z,21.40
2019-05-18T09:48:03.284Z,21.30
2019-05-18T09:50:38.884Z,21.20
2019-05-18T09:53:50.757Z,21.10
2019-05-18T09:56:17.104Z,21.00
2019-05-18T09:58:50.805Z,21.10
2019-05-18T10:01:23.825Z,21.00
2019-05-18T10:03:53.183Z,21.10
2019-05-18T10:06:22.780Z,21.10
2019-05-18T10:09:08.035Z,21.10
2019-05-18T10:15:06.043Z,21.20
2019-05-18T10:17:35.529Z,21.30
2019-05-18T10:20:21.910Z,21.30
2019-05-18T10:23:04.162Z,21.30
2019-05-18T10:25:50.692Z,21.30
2019-05-18T10:28:06.737Z,21.50
2019-05-18T10:30:39.251Z,21.50
2019-05-18T10:33:16.212Z,21.50
2019-05-18T10:35:47.410Z,21.50
2019-05-18T10:38:37.538Z,21.40
2019-05-18T10:47:30.760Z,21.00
2019-05-18T10:50:26.263Z,20.80
2019-05-18T10:56:38.585Z,20.50
2019-05-18T10:59:15.731Z,20.40
2019-05-18T11:01:45.260Z,20.30
2019-05-18T11:04:21.728Z,20.30
2019-05-18T11:07:05.379Z,20.30
2019-05-18T11:09:51.777Z,20.40
2019-05-18T11:12:21.333Z,20.40
2019-05-18T11:21:03.679Z,20.30
2019-05-18T11:23:43.116Z,20.20
2019-05-18T11:26:07.403Z,20.20
2019-05-18T11:28:39.535Z,20.20
2019-05-18T11:31:09.228Z,20.10
2019-05-18T11:33:38.861Z,20.10
2019-05-18T11:36:11.325Z,20.10
2019-05-18T11:39:13.399Z,20.10
2019-05-18T11:41:44.793Z,20.10
2019-05-18T11:44:29.354Z,20.10
2019-05-18T11:47:27.463Z,20.00
2019-05-18T11:49:48.023Z,20.00
2019-05-18T11:52:36.808Z,19.90
2019-05-18T11:55:09.375Z,19.80
2019-05-18T11:57:39.311Z,19.70
2019-05-18T12:00:17.806Z,19.60
2019-05-18T12:02:58.531Z,19.60
2019-05-18T12:05:32.506Z,19.50
2019-05-18T12:08:04.979Z,19.50
2019-05-18T12:10:42.092Z,19.50
2019-05-18T12:13:22.239Z,19.50
2019-05-18T12:16:56.913Z,19.50
2019-05-18T12:19:19.346Z,19.50
2019-05-18T12:22:17.591Z,19.50
2019-05-18T12:24:47.362Z,19.60
2019-05-18T12:33:34.900Z,20.00
2019-05-18T12:36:06.280Z,20.00
2019-05-18T12:38:41.462Z,20.00
2019-05-18T12:41:33.432Z,20.10
2019-05-18T12:44:13.618Z,20.10
2019-05-18T12:46:45.046Z,20.10
2019-05-18T12:52:10.926Z,20.00
2019-05-18T12:54:54.205Z,20.00
2019-05-18T12:57:47.442Z,20.00
2019-05-18T13:00:26.367Z,20.00
2019-05-18T13:02:57.098Z,20.00
2019-05-18T13:05:29.604Z,19.90
2019-05-18T13:08:00.482Z,19.80
2019-05-18T13:10:32.627Z,19.60
2019-05-18T13:13:03.976Z,19.60
2019-05-18T13:15:35.319Z,19.40
2019-05-18T13:18:04.914Z,19.30
2019-05-18T13:20:34.404Z,19.10
2019-05-18T13:23:04.068Z,19.10
2019-05-18T13:25:39.566Z,19.10
2019-05-18T13:28:15.505Z,18.90
2019-05-18T13:30:52.017Z,18.90
2019-05-18T13:33:23.603Z,18.80
2019-05-18T13:35:56.889Z,18.80
2019-05-18T13:38:26.625Z,18.60
2019-05-18T13:40:57.697Z,18.70
2019-05-18T13:43:27.225Z,18.60
2019-05-18T13:45:56.766Z,18.60
2019-05-18T13:51:16.469Z,18.70
2019-05-18T13:53:50.008Z,18.80
2019-05-18T13:56:26.786Z,19.00
2019-05-18T13:58:58.051Z,19.10
2019-05-18T14:01:32.179Z,19.20
2019-05-18T14:04:03.802Z,19.40
2019-05-18T14:06:33.364Z,19.60
2019-05-18T14:09:05.937Z,19.90
2019-05-18T14:11:35.554Z,19.90
2019-05-18T14:14:07.732Z,20.00
2019-05-18T14:16:46.861Z,20.00
2019-05-18T14:19:18.775Z,20.00
2019-05-18T14:21:49.783Z,19.90
2019-05-18T14:24:21.139Z,20.00
2019-05-18T14:26:52.427Z,19.80
2019-05-18T14:29:23.988Z,19.80
2019-05-18T14:31:53.455Z,19.70
2019-05-18T14:34:24.450Z,19.70
2019-05-18T14:36:54.543Z,19.60
2019-05-18T14:39:28.485Z,19.60
2019-05-18T14:41:59.427Z,19.50
2019-05-18T14:44:32.453Z,19.60
2019-05-18T14:47:03.657Z,19.60
2019-05-18T14:49:33.563Z,19.70
2019-05-18T14:52:16.516Z,19.60
2019-05-18T14:54:48.791Z,19.60
2019-05-18T14:57:45.818Z,19.70
2019-05-18T15:00:22.003Z,19.70
2019-05-18T15:02:56.466Z,19.60
2019-05-18T15:05:34.050Z,19.70
2019-05-18T15:08:05.519Z,19.80
2019-05-18T15:10:56.562Z,19.90
2019-05-18T15:14:02.281Z,19.90
2019-05-18T15:16:45.299Z,19.90
2019-05-18T15:22:09.105Z,19.90
2019-05-18T15:24:38.699Z,19.90
2019-05-18T15:27:08.622Z,19.90
2019-05-18T15:29:43.866Z,19.90
2019-05-18T15:32:24.698Z,19.80
2019-05-18T15:34:59.891Z,19.80
2019-05-18T15:37:30.543Z,19.80
2019-05-18T15:40:06.362Z,19.80
2019-05-18T15:42:36.477Z,19.80
2019-05-18T15:45:12.308Z,19.80
2019-05-18T15:47:43.610Z,19.80
2019-05-18T15:50:13.384Z,19.80
2019-05-18T15:52:42.889Z,19.90
2019-05-18T15:55:18.697Z,19.90
2019-05-18T15:57:51.969Z,19.90
2019-05-18T16:00:21.619Z,19.80
2019-05-18T16:02:51.058Z,19.80
2019-05-18T16:05:25.527Z,19.80
2019-05-18T16:07:55.187Z,19.80
2019-05-18T16:10:24.777Z,19.80
2019-05-18T16:13:00.450Z,19.80
2019-05-18T16:15:31.131Z,19.80
2019-05-18T16:18:12.030Z,19.80
2019-05-18T16:20:47.901Z,19.80
2019-05-18T16:23:18.543Z,19.70
2019-05-18T16:25:52.669Z,19.70
2019-05-18T16:31:05.540Z,19.60
2019-05-18T16:33:42.128Z,19.60
2019-05-18T16:36:31.764Z,19.50
2019-05-18T16:39:06.345Z,19.50
2019-05-18T16:41:38.496Z,19.40
2019-05-18T16:44:08.368Z,19.30
2019-05-18T16:46:50.693Z,19.30
2019-05-18T16:49:28.899Z,19.30
2019-05-18T16:52:01.532Z,19.30
2019-05-18T16:57:19.282Z,19.20
2019-05-18T17:00:15.153Z,19.10
2019-05-18T17:03:29.652Z,19.10
2019-05-18T17:06:04.342Z,19.10
2019-05-18T17:08:41.117Z,19.00
2019-05-18T17:11:18.237Z,18.90
2019-05-18T17:13:50.149Z,18.90
2019-05-18T17:16:20.301Z,18.90
2019-05-18T17:18:51.470Z,18.90
2019-05-18T17:21:22.699Z,18.90
2019-05-18T17:23:53.707Z,18.80
2019-05-18T17:26:25.984Z,18.80
2019-05-18T17:28:56.430Z,18.70
2019-05-18T17:31:27.302Z,18.70
2019-05-18T17:34:07.654Z,18.60
2019-05-18T17:36:42.093Z,18.60
2019-05-18T17:42:22.678Z,18.50
2019-05-18T17:45:10.326Z,18.50
2019-05-18T17:54:48.387Z,18.40
2019-05-18T18:03:39.456Z,18.20
2019-05-18T18:06:27.637Z,18.20
2019-05-18T18:09:20.302Z,18.20
2019-05-18T18:11:49.816Z,18.10
2019-05-18T18:14:19.843Z,18.10
2019-05-18T18:16:49.554Z,18.00
2019-05-18T18:19:19.074Z,18.00
2019-05-18T18:21:49.828Z,17.90
2019-05-18T18:24:19.278Z,17.90
2019-05-18T18:26:50.375Z,17.90
2019-05-18T18:29:19.907Z,17.80
2019-05-18T18:31:49.299Z,17.70
2019-05-18T18:34:18.826Z,17.70
2019-05-18T18:36:48.255Z,17.70
2019-05-18T18:39:23.506Z,17.70
2019-05-18T18:41:57.827Z,17.60
2019-05-18T18:44:37.825Z,17.60
2019-05-18T18:47:22.506Z,17.60
2019-05-18T18:49:52.752Z,17.50
2019-05-18T18:52:39.416Z,17.50
2019-05-18T18:55:09.111Z,17.50
2019-05-18T18:57:41.901Z,17.50
2019-05-18T19:00:14.065Z,17.50
2019-05-18T19:03:09.272Z,17.50
2019-05-18T19:05:52.636Z,17.50
2019-05-18T19:11:38.594Z,17.30
2019-05-18T19:14:18.329Z,17.30
2019-05-18T19:17:05.907Z,17.30
2019-05-18T19:19:43.413Z,17.20
2019-05-18T19:25:05.114Z,17.10
2019-05-18T19:33:41.808Z,16.90
2019-05-18T19:39:00.964Z,16.70
2019-05-18T19:54:54.416Z,16.60
2019-05-18T20:09:38.050Z,16.70
2019-05-18T20:12:16.647Z,16.60
2019-05-18T20:17:33.903Z,16.60
2019-05-18T20:20:08.525Z,16.60
2019-05-18T20:22:48.506Z,16.60
2019-05-18T20:25:24.824Z,16.60
2019-05-18T20:28:04.188Z,16.60
2019-05-18T20:33:44.644Z,16.60
2019-05-18T20:37:03.261Z,16.60
2019-05-18T20:43:33.507Z,16.60
2019-05-18T20:46:13.993Z,16.70
2019-05-18T20:48:56.666Z,16.60
2019-05-18T20:51:34.590Z,16.60
2019-05-18T20:57:21.505Z,16.60
2019-05-18T21:05:55.402Z,16.50
2019-05-18T21:11:12.789Z,16.50
2019-05-18T21:13:42.513Z,16.50
2019-05-18T21:16:25.124Z,16.50
2019-05-18T21:18:56.175Z,16.50
2019-05-18T21:21:49.789Z,16.40
2019-05-18T21:24:19.218Z,16.40
2019-05-18T21:26:55.801Z,16.40
2019-05-18T21:36:12.312Z,16.40
2019-05-18T21:38:51.335Z,16.40
2019-05-18T21:41:35.813Z,16.30
2019-05-18T21:44:15.292Z,16.30
2019-05-18T21:46:49.986Z,16.20
2019-05-18T21:52:47.766Z,16.20
2019-05-18T21:58:41.045Z,16.40
2019-05-18T22:01:25.448Z,16.40
2019-05-18T22:04:18.626Z,16.50
2019-05-18T22:06:48.248Z,16.60
2019-05-18T22:09:18.252Z,16.60
2019-05-18T22:11:47.789Z,16.70
2019-05-18T22:14:17.478Z,16.70
2019-05-18T22:16:47.091Z,16.70
2019-05-18T22:19:17.658Z,16.80
2019-05-18T22:21:47.270Z,16.80
2019-05-18T22:24:18.810Z,16.80
2019-05-18T22:26:48.479Z,16.80
2019-05-18T22:29:18.071Z,16.90
2019-05-18T22:37:47.256Z,16.90
2019-05-18T22:40:17.017Z,16.90
2019-05-18T22:42:46.504Z,16.80
2019-05-18T22:45:17.696Z,16.80
2019-05-18T22:47:47.093Z,16.70
2019-05-18T22:50:16.996Z,16.70
2019-05-18T22:52:46.658Z,16.70
2019-05-18T22:55:16.456Z,16.60
2019-05-18T22:57:45.880Z,16.60
2019-05-18T23:00:18.142Z,16.60
2019-05-18T23:02:47.645Z,16.60
2019-05-18T23:17:40.526Z,16.50
2019-05-18T23:20:10.051Z,16.60
2019-05-18T23:22:39.528Z,16.60
2019-05-18T23:25:09.243Z,16.50
2019-05-18T23:27:40.228Z,16.60
2019-05-18T23:30:11.298Z,16.60
2019-05-18T23:32:41.027Z,16.60
2019-05-18T23:35:10.634Z,16.60
2019-05-18T23:37:40.119Z,16.60
2019-05-18T23:40:09.920Z,16.60
2019-05-18T23:42:39.552Z,16.60
2019-05-18T23:45:10.300Z,16.60
2019-05-18T23:47:41.460Z,16.60
2019-05-18T23:50:11.128Z,16.60
2019-05-18T23:52:40.620Z,16.70
2019-05-18T23:55:10.335Z,16.70
2019-05-18T23:57:41.106Z,16.70
